sensor_id;sensor_type;location;lat;lon;timestamp;P1;durP1;ratioP1;P2;durP2;ratioP2
46983;SDS011;34732;52.112;9.366;2023-02-28T14:44:29;9.00;;;2.72;;
46983;SDS011;34732;52.112;9.366;2023-02-28T14:47:53;12.15;;;2.40;;
46983;SDS011;34732;52.112;9.366;2023-02-28T14:51:23;6.07;;;2.10;;
46983;SDS011;34732;52.112;9.366;2023-02-28T14:54:53;11.98;;;2.60;;
46983;SDS011;34732;52.112;9.366;2023-02-28T14:58:21;8.55;;;1.98;;
46983;SDS011;34732;52.112;9.366;2023-02-28T15:01:46;10.50;;;2.65;;
46983;SDS011;34732;52.112;9.366;2023-02-28T15:08:37;11.35;;;2.92;;
46983;SDS011;34732;52.112;9.366;2023-02-28T15:12:00;10.45;;;2.75;;
46983;SDS011;34732;52.112;9.366;2023-02-28T15:15:28;10.70;;;2.80;;
46983;SDS011;34732;52.112;9.366;2023-02-28T15:19:14;10.38;;;2.90;;
46983;SDS011;34732;52.112;9.366;2023-02-28T15:22:41;14.00;;;2.67;;
46983;SDS011;34732;52.112;9.366;2023-02-28T15:26:10;10.45;;;2.63;;
46983;SDS011;34732;52.112;9.366;2023-02-28T15:29:47;11.60;;;2.50;;
46983;SDS011;34732;52.112;9.366;2023-02-28T15:41:04;4.97;;;1.90;;
46983;SDS011;34732;52.112;9.366;2023-02-28T15:44:33;6.13;;;2.47;;
46983;SDS011;34732;52.112;9.366;2023-02-28T15:55:32;7.75;;;2.10;;
46983;SDS011;34732;52.112;9.366;2023-02-28T15:59:05;4.78;;;1.80;;
46983;SDS011;34732;52.112;9.366;2023-02-28T16:02:36;5.95;;;1.80;;
46983;SDS011;34732;52.112;9.366;2023-02-28T16:06:37;6.65;;;1.90;;
46983;SDS011;34732;52.112;9.366;2023-02-28T16:09:50;3.92;;;1.30;;
46983;SDS011;34732;52.112;9.366;2023-02-28T16:16:41;4.80;;;1.88;;
46983;SDS011;34732;52.112;9.366;2023-02-28T16:20:24;4.45;;;1.50;;
46983;SDS011;34732;52.112;9.366;2023-02-28T16:23:51;5.80;;;1.50;;
46983;SDS011;34732;52.112;9.366;2023-02-28T16:27:18;4.50;;;1.30;;
46983;SDS011;34732;52.112;9.366;2023-02-28T16:30:45;4.57;;;1.83;;
46983;SDS011;34732;52.112;9.366;2023-02-28T16:34:13;4.85;;;1.50;;
46983;SDS011;34732;52.112;9.366;2023-02-28T16:37:36;3.72;;;1.42;;
46983;SDS011;34732;52.112;9.366;2023-02-28T16:41:00;7.78;;;1.58;;
46983;SDS011;34732;52.112;9.366;2023-02-28T16:44:28;8.18;;;1.75;;
46983;SDS011;34732;52.112;9.366;2023-02-28T16:47:53;5.88;;;1.50;;
46983;SDS011;34732;52.112;9.366;2023-02-28T16:51:20;6.28;;;1.65;;
46983;SDS011;34732;52.112;9.366;2023-02-28T16:54:47;5.38;;;1.63;;
46983;SDS011;34732;52.112;9.366;2023-02-28T16:58:13;5.47;;;1.67;;
46983;SDS011;34732;52.112;9.366;2023-02-28T17:01:38;5.90;;;1.92;;
46983;SDS011;34732;52.112;9.366;2023-02-28T17:05:00;5.45;;;1.60;;
46983;SDS011;34732;52.112;9.366;2023-02-28T17:08:26;4.95;;;1.75;;
46983;SDS011;34732;52.112;9.366;2023-02-28T17:11:49;5.82;;;1.42;;
46983;SDS011;34732;52.112;9.366;2023-02-28T17:15:14;7.78;;;1.65;;
46983;SDS011;34732;52.112;9.366;2023-02-28T17:18:37;6.13;;;1.73;;
46983;SDS011;34732;52.112;9.366;2023-02-28T17:22:09;6.18;;;1.80;;
46983;SDS011;34732;52.112;9.366;2023-02-28T17:25:30;8.38;;;2.17;;
46983;SDS011;34732;52.112;9.366;2023-02-28T17:28:54;4.32;;;1.48;;
46983;SDS011;34732;52.112;9.366;2023-02-28T17:32:23;2.45;;;1.38;;
46983;SDS011;34732;52.112;9.366;2023-02-28T17:35:44;7.45;;;1.38;;
46983;SDS011;34732;52.112;9.366;2023-02-28T17:39:08;7.68;;;1.60;;
46983;SDS011;34732;52.112;9.366;2023-02-28T17:42:33;5.85;;;1.38;;
46983;SDS011;34732;52.112;9.366;2023-02-28T17:45:54;10.10;;;1.63;;
46983;SDS011;34732;52.112;9.366;2023-02-28T17:49:17;4.13;;;1.25;;
46983;SDS011;34732;52.112;9.366;2023-02-28T17:52:41;7.13;;;1.88;;
46983;SDS011;34732;52.112;9.366;2023-02-28T17:56:04;3.25;;;1.45;;
46983;SDS011;34732;52.112;9.366;2023-02-28T17:59:26;8.32;;;1.80;;
46983;SDS011;34732;52.112;9.366;2023-02-28T18:03:00;6.38;;;1.88;;
46983;SDS011;34732;52.112;9.366;2023-02-28T18:06:40;8.68;;;1.67;;
46983;SDS011;34732;52.112;9.366;2023-02-28T18:10:17;5.13;;;1.50;;
46983;SDS011;34732;52.112;9.366;2023-02-28T18:13:44;7.65;;;1.40;;
46983;SDS011;34732;52.112;9.366;2023-02-28T18:17:11;4.60;;;1.40;;
46983;SDS011;34732;52.112;9.366;2023-02-28T18:20:40;5.07;;;1.42;;
46983;SDS011;34732;52.112;9.366;2023-02-28T18:24:08;7.97;;;1.70;;
46983;SDS011;34732;52.112;9.366;2023-02-28T18:27:31;4.93;;;1.40;;
46983;SDS011;34732;52.112;9.366;2023-02-28T18:30:55;4.55;;;1.23;;
46983;SDS011;34732;52.112;9.366;2023-02-28T18:34:16;4.32;;;1.10;;
46983;SDS011;34732;52.112;9.366;2023-02-28T18:37:47;3.75;;;1.70;;
46983;SDS011;34732;52.112;9.366;2023-02-28T18:41:10;4.85;;;1.60;;
46983;SDS011;34732;52.112;9.366;2023-02-28T18:44:35;5.97;;;1.65;;
46983;SDS011;34732;52.112;9.366;2023-02-28T18:47:59;6.30;;;1.50;;
46983;SDS011;34732;52.112;9.366;2023-02-28T18:51:22;3.38;;;1.30;;
46983;SDS011;34732;52.112;9.366;2023-02-28T18:54:48;8.18;;;1.30;;
46983;SDS011;34732;52.112;9.366;2023-02-28T18:58:13;8.02;;;5.07;;
46983;SDS011;34732;52.112;9.366;2023-02-28T19:01:43;7.75;;;5.32;;
46983;SDS011;34732;52.112;9.366;2023-02-28T19:05:09;8.18;;;5.72;;
46983;SDS011;34732;52.112;9.366;2023-02-28T19:08:31;6.68;;;4.13;;
